createdAt,value
2019-06-15T00:01:55.253Z,6.67
2019-06-15T00:04:27.236Z,6.33
2019-06-15T00:06:59.194Z,5.83
2019-06-15T00:09:31.168Z,5.22
2019-06-15T00:12:03.134Z,6.15
2019-06-15T00:14:35.125Z,9.03
2019-06-15T00:17:07.087Z,5.87
2019-06-15T00:19:39.065Z,4.85
2019-06-15T00:22:11.008Z,5.10
2019-06-15T00:24:42.976Z,7.15
2019-06-15T00:27:15.010Z,6.85
2019-06-15T00:29:46.967Z,5.25
2019-06-15T00:32:18.942Z,5.75
2019-06-15T00:34:50.933Z,6.37
2019-06-15T00:37:22.912Z,5.50
2019-06-15T00:39:54.891Z,6.03
2019-06-15T00:42:26.851Z,6.40
2019-06-15T00:44:58.831Z,6.30
2019-06-15T00:47:30.776Z,7.50
2019-06-15T00:50:03.070Z,7.87
2019-06-15T00:52:35.084Z,6.62
2019-06-15T00:55:07.059Z,6.55
2019-06-15T00:57:39.047Z,5.70
2019-06-15T01:00:11.490Z,5.35
2019-06-15T01:02:43.495Z,5.58
2019-06-15T01:05:15.627Z,6.58
2019-06-15T01:07:47.621Z,5.28
2019-06-15T01:10:19.615Z,7.50
2019-06-15T01:12:51.586Z,6.10
2019-06-15T01:15:23.630Z,5.12
2019-06-15T01:17:55.599Z,7.12
2019-06-15T01:20:27.582Z,8.10
2019-06-15T01:22:59.767Z,5.62
2019-06-15T01:25:31.745Z,5.83
2019-06-15T01:28:03.743Z,5.20
2019-06-15T01:30:35.727Z,6.33
2019-06-15T01:33:07.690Z,6.58
2019-06-15T01:35:39.730Z,7.35
2019-06-15T01:38:11.745Z,8.50
2019-06-15T01:40:43.691Z,6.45
2019-06-15T01:43:15.672Z,6.50
2019-06-15T01:45:47.636Z,7.05
2019-06-15T01:48:19.620Z,8.50
2019-06-15T01:50:51.626Z,6.65
2019-06-15T01:53:23.621Z,5.95
2019-06-15T01:55:55.607Z,6.60
2019-06-15T01:58:27.586Z,7.45
2019-06-15T02:00:59.541Z,6.00
2019-06-15T02:03:31.516Z,8.13
2019-06-15T02:06:03.566Z,6.92
2019-06-15T02:08:35.550Z,6.15
2019-06-15T02:11:07.545Z,6.47
2019-06-15T02:13:39.535Z,7.30
2019-06-15T02:16:11.508Z,7.87
2019-06-15T02:18:43.485Z,6.22
2019-06-15T02:21:15.546Z,6.50
2019-06-15T02:23:47.505Z,6.05
2019-06-15T02:26:19.449Z,6.20
2019-06-15T02:28:51.454Z,6.17
2019-06-15T02:31:23.412Z,6.35
2019-06-15T02:33:55.386Z,5.67
2019-06-15T02:36:27.310Z,17.23
2019-06-15T02:38:59.287Z,13.20
2019-06-15T02:41:31.255Z,7.53
2019-06-15T02:44:04.083Z,5.33
2019-06-15T02:46:36.020Z,4.80
2019-06-15T02:49:08.021Z,5.65
2019-06-15T02:51:39.995Z,7.92
2019-06-15T02:54:11.944Z,5.50
2019-06-15T02:56:43.920Z,5.20
2019-06-15T02:59:15.865Z,6.33
2019-06-15T03:01:47.836Z,6.62
2019-06-15T03:04:19.822Z,5.62
2019-06-15T03:06:51.846Z,7.00
2019-06-15T03:09:24.268Z,6.40
2019-06-15T03:11:56.262Z,7.37
2019-06-15T03:14:28.329Z,6.03
2019-06-15T03:17:00.304Z,5.45
2019-06-15T03:19:32.241Z,5.58
2019-06-15T03:22:06.492Z,5.53
2019-06-15T03:24:38.079Z,7.60
2019-06-15T03:27:10.077Z,6.37
2019-06-15T03:29:42.034Z,6.25
2019-06-15T03:32:14.039Z,6.17
2019-06-15T03:34:45.980Z,5.72
2019-06-15T03:37:17.981Z,5.92
2019-06-15T03:39:49.968Z,6.67
2019-06-15T03:42:21.926Z,6.30
2019-06-15T03:44:53.862Z,8.08
2019-06-15T03:47:25.854Z,5.22
2019-06-15T03:49:57.785Z,6.75
2019-06-15T03:52:29.758Z,6.85
2019-06-15T03:55:01.716Z,6.17
2019-06-15T03:57:33.658Z,8.28
2019-06-15T04:00:22.149Z,6.67
2019-06-15T04:02:54.122Z,6.50
2019-06-15T04:05:26.062Z,8.00
2019-06-15T04:07:58.048Z,6.20
2019-06-15T04:10:30.001Z,7.33
2019-06-15T04:13:01.996Z,8.38
2019-06-15T04:15:33.950Z,6.17
2019-06-15T04:18:05.951Z,6.53
2019-06-15T04:20:37.918Z,7.30
2019-06-15T04:23:10.013Z,7.37
2019-06-15T04:25:44.249Z,7.22
2019-06-15T04:28:15.850Z,7.35
2019-06-15T04:30:47.842Z,6.80
2019-06-15T04:33:19.801Z,7.33
2019-06-15T04:35:51.753Z,5.87
2019-06-15T04:38:23.761Z,6.60
2019-06-15T04:40:55.719Z,6.97
2019-06-15T04:43:27.742Z,8.05
2019-06-15T04:45:59.633Z,8.98
2019-06-15T04:48:31.612Z,7.58
2019-06-15T04:51:03.705Z,7.35
2019-06-15T04:53:35.682Z,5.35
2019-06-15T04:56:07.652Z,6.22
2019-06-15T04:58:39.625Z,7.10
2019-06-15T05:01:11.598Z,7.17
2019-06-15T05:03:43.576Z,5.87
2019-06-15T05:06:15.507Z,7.97
2019-06-15T05:08:47.508Z,7.05
2019-06-15T05:11:19.488Z,6.80
2019-06-15T05:13:51.447Z,5.97
2019-06-15T05:16:23.407Z,6.47
2019-06-15T05:18:55.362Z,4.80
2019-06-15T05:21:27.441Z,8.85
2019-06-15T05:23:59.419Z,7.53
2019-06-15T05:26:31.367Z,6.97
2019-06-15T05:29:03.642Z,5.67
2019-06-15T05:31:35.617Z,4.87
2019-06-15T05:34:07.597Z,7.72
2019-06-15T05:36:39.559Z,5.70
2019-06-15T05:39:11.517Z,8.23
2019-06-15T05:41:43.495Z,6.28
2019-06-15T05:44:15.436Z,9.18
2019-06-15T05:46:47.384Z,6.03
2019-06-15T05:49:19.335Z,5.97
2019-06-15T05:51:51.301Z,5.28
2019-06-15T05:54:23.279Z,6.10
2019-06-15T05:56:55.335Z,6.47
2019-06-15T05:59:27.300Z,5.72
2019-06-15T06:01:59.254Z,8.03
2019-06-15T06:04:31.415Z,7.30
2019-06-15T06:07:03.378Z,8.23
2019-06-15T06:09:35.327Z,5.80
2019-06-15T06:12:07.308Z,7.15
2019-06-15T06:14:39.236Z,7.60
2019-06-15T06:17:11.230Z,5.20
2019-06-15T06:19:43.199Z,7.20
2019-06-15T06:22:15.231Z,6.53
2019-06-15T06:24:47.172Z,6.15
2019-06-15T06:27:19.428Z,4.60
2019-06-15T06:29:51.420Z,6.78
2019-06-15T06:32:23.365Z,6.28
2019-06-15T06:34:55.295Z,6.28
2019-06-15T06:37:27.362Z,6.60
2019-06-15T06:39:59.334Z,5.28
2019-06-15T06:42:31.285Z,5.62
2019-06-15T06:45:05.271Z,8.53
2019-06-15T06:47:37.272Z,5.47
2019-06-15T06:50:09.847Z,6.20
2019-06-15T06:52:41.844Z,5.60
2019-06-15T06:55:13.789Z,7.58
2019-06-15T06:57:53.344Z,6.40
2019-06-15T07:00:19.834Z,6.42
2019-06-15T07:02:51.791Z,5.95
2019-06-15T07:05:23.753Z,5.37
2019-06-15T07:07:55.723Z,6.62
2019-06-15T07:10:27.685Z,4.45
2019-06-15T07:12:59.665Z,4.92
2019-06-15T07:15:31.605Z,7.35
2019-06-15T07:18:03.625Z,5.60
2019-06-15T07:20:35.580Z,4.90
2019-06-15T07:23:07.560Z,4.90
2019-06-15T07:25:39.534Z,6.97
2019-06-15T07:28:11.521Z,6.85
2019-06-15T07:30:43.492Z,5.37
2019-06-15T07:33:15.512Z,7.17
2019-06-15T07:35:47.566Z,6.33
2019-06-15T07:38:19.527Z,5.45
2019-06-15T07:40:51.482Z,6.28
2019-06-15T07:43:23.529Z,7.65
2019-06-15T07:45:55.586Z,5.55
2019-06-15T07:48:27.565Z,4.33
2019-06-15T07:50:59.542Z,5.25
2019-06-15T07:53:31.480Z,5.87
2019-06-15T07:56:03.494Z,6.03
2019-06-15T07:58:35.459Z,4.53
2019-06-15T08:01:07.481Z,5.53
2019-06-15T08:03:39.522Z,4.62
2019-06-15T08:06:11.528Z,4.22
2019-06-15T08:08:43.527Z,3.35
2019-06-15T08:11:15.493Z,3.17
2019-06-15T08:13:47.479Z,3.70
2019-06-15T08:16:19.450Z,3.87
2019-06-15T08:18:51.480Z,3.58
2019-06-15T08:21:23.465Z,3.30
2019-06-15T08:23:55.494Z,7.83
2019-06-15T08:26:27.479Z,4.58
2019-06-15T08:28:59.477Z,4.35
2019-06-15T08:31:31.567Z,3.55
2019-06-15T08:34:03.536Z,3.05
2019-06-15T08:36:35.486Z,4.47
2019-06-15T08:39:07.456Z,3.52
2019-06-15T08:41:39.742Z,4.60
2019-06-15T08:44:11.867Z,5.85
2019-06-15T08:46:43.871Z,3.70
2019-06-15T08:49:15.828Z,3.00
2019-06-15T08:51:47.839Z,7.22
2019-06-15T08:54:19.830Z,3.98
2019-06-15T08:56:51.791Z,2.62
2019-06-15T08:59:23.746Z,3.95
2019-06-15T09:01:55.726Z,3.45
2019-06-15T09:04:27.752Z,3.40
2019-06-15T09:06:59.747Z,5.75
2019-06-15T09:09:31.738Z,4.00
2019-06-15T09:12:03.738Z,2.58
2019-06-15T09:14:35.746Z,3.08
2019-06-15T09:17:07.830Z,3.33
2019-06-15T09:19:39.808Z,3.70
2019-06-15T09:22:11.803Z,3.08
2019-06-15T09:24:43.754Z,3.92
2019-06-15T09:27:15.752Z,3.00
2019-06-15T09:29:47.742Z,2.90
2019-06-15T09:32:19.745Z,1.98
2019-06-15T09:34:51.713Z,2.62
2019-06-15T09:37:23.768Z,2.08
2019-06-15T09:39:55.791Z,1.82
2019-06-15T09:42:27.769Z,1.90
2019-06-15T09:44:59.733Z,1.85
2019-06-15T09:47:31.762Z,2.55
2019-06-15T09:50:04.330Z,1.92
2019-06-15T09:52:36.327Z,1.70
2019-06-15T09:55:09.282Z,2.98
2019-06-15T09:57:41.347Z,1.80
2019-06-15T10:00:13.529Z,2.22
2019-06-15T10:02:45.553Z,2.33
2019-06-15T10:05:17.628Z,2.17
2019-06-15T10:07:49.625Z,3.27
2019-06-15T10:10:21.614Z,2.85
2019-06-15T10:12:53.667Z,2.00
2019-06-15T10:15:25.658Z,1.98
2019-06-15T10:17:57.613Z,2.02
2019-06-15T10:20:29.600Z,1.70
2019-06-15T10:23:01.623Z,3.47
2019-06-15T10:25:33.779Z,1.72
2019-06-15T10:28:05.775Z,2.27
2019-06-15T10:30:37.804Z,2.98
2019-06-15T10:33:09.738Z,2.12
2019-06-15T10:35:41.721Z,2.60
2019-06-15T10:38:13.709Z,2.47
2019-06-15T10:40:45.709Z,2.05
2019-06-15T10:43:17.800Z,2.62
2019-06-15T10:45:49.885Z,1.87
2019-06-15T10:48:21.854Z,1.92
2019-06-15T10:50:53.910Z,2.85
2019-06-15T10:53:25.891Z,4.00
2019-06-15T10:55:57.955Z,1.87
2019-06-15T10:58:29.994Z,1.70
2019-06-15T11:01:02.007Z,2.70
2019-06-15T11:03:34.017Z,2.37
2019-06-15T11:06:06.014Z,4.05
2019-06-15T11:08:38.015Z,2.90
2019-06-15T11:11:21.792Z,4.35
2019-06-15T11:13:54.174Z,2.80
2019-06-15T11:16:26.191Z,2.42
2019-06-15T11:18:58.132Z,2.37
2019-06-15T11:21:30.138Z,2.85
2019-06-15T11:24:02.106Z,2.10
2019-06-15T11:26:34.086Z,2.42
2019-06-15T11:29:06.068Z,2.00
2019-06-15T11:31:38.100Z,2.27
2019-06-15T11:34:10.079Z,2.33
2019-06-15T11:36:42.066Z,2.72
2019-06-15T11:39:14.057Z,3.27
2019-06-15T11:41:46.040Z,2.35
2019-06-15T11:44:18.041Z,3.30
2019-06-15T11:46:50.049Z,3.00
2019-06-15T11:49:22.018Z,2.67
2019-06-15T11:51:54.009Z,3.37
2019-06-15T11:54:26.024Z,1.98
2019-06-15T11:56:58.051Z,2.22
2019-06-15T11:59:30.089Z,2.85
2019-06-15T12:02:02.122Z,3.12
2019-06-15T12:04:34.112Z,2.90
2019-06-15T12:07:06.139Z,3.87
2019-06-15T12:09:38.118Z,2.42
2019-06-15T12:12:10.138Z,2.40
2019-06-15T12:14:42.144Z,2.52
2019-06-15T12:17:14.138Z,2.35
2019-06-15T12:19:46.104Z,2.00
2019-06-15T12:22:18.098Z,2.55
2019-06-15T12:24:50.116Z,2.10
2019-06-15T12:27:22.073Z,2.12
2019-06-15T12:29:54.098Z,2.87
2019-06-15T12:32:26.114Z,4.00
2019-06-15T12:34:58.094Z,3.62
2019-06-15T12:37:30.089Z,3.80
2019-06-15T12:40:02.077Z,2.47
2019-06-15T12:42:34.128Z,2.37
2019-06-15T12:45:06.351Z,2.98
2019-06-15T12:47:38.330Z,2.95
2019-06-15T12:50:10.593Z,2.15
2019-06-15T12:52:42.575Z,3.27
2019-06-15T12:55:14.797Z,2.05
2019-06-15T12:57:46.824Z,2.27
2019-06-15T13:00:24.527Z,2.62
2019-06-15T13:02:56.492Z,2.75
2019-06-15T13:05:28.539Z,2.08
2019-06-15T13:08:00.959Z,2.12
2019-06-15T13:10:40.071Z,1.92
2019-06-15T13:13:12.041Z,2.00
2019-06-15T13:15:44.043Z,2.25
2019-06-15T13:18:16.015Z,1.92
2019-06-15T13:20:48.013Z,1.92
2019-06-15T13:23:20.016Z,1.90
2019-06-15T13:25:52.015Z,3.60
2019-06-15T13:28:23.980Z,3.27
2019-06-15T13:30:56.024Z,2.10
2019-06-15T13:33:28.028Z,1.57
2019-06-15T13:36:00.028Z,1.62
2019-06-15T13:38:32.008Z,1.87
2019-06-15T13:41:04.041Z,1.87
2019-06-15T13:43:35.995Z,2.33
2019-06-15T13:46:08.040Z,1.80
2019-06-15T13:48:40.028Z,1.80
2019-06-15T13:51:12.045Z,1.90
2019-06-15T13:53:44.336Z,1.85
2019-06-15T13:56:16.322Z,2.00
2019-06-15T13:58:48.278Z,2.10
2019-06-15T14:01:33.207Z,1.90
2019-06-15T14:03:54.155Z,2.33
2019-06-15T14:06:26.155Z,2.22
2019-06-15T14:08:58.157Z,1.77
2019-06-15T14:11:30.162Z,1.75
2019-06-15T14:14:02.150Z,2.12
2019-06-15T14:16:34.260Z,2.67
2019-06-15T14:19:06.177Z,1.85
2019-06-15T14:21:38.241Z,2.22
2019-06-15T14:24:10.182Z,2.27
2019-06-15T14:26:42.202Z,2.50
2019-06-15T14:29:17.325Z,2.02
2019-06-15T14:31:50.393Z,1.75
2019-06-15T14:34:21.993Z,1.90
2019-06-15T14:36:53.999Z,2.00
2019-06-15T14:39:25.953Z,1.85
2019-06-15T14:41:57.916Z,1.70
2019-06-15T14:44:29.866Z,1.75
2019-06-15T14:47:01.887Z,1.90
2019-06-15T14:49:33.849Z,1.77
2019-06-15T14:52:05.889Z,2.45
2019-06-15T14:54:37.875Z,1.80
2019-06-15T14:57:09.932Z,2.40
2019-06-15T14:59:55.401Z,1.85
2019-06-15T15:02:17.535Z,1.65
2019-06-15T15:04:49.747Z,1.80
2019-06-15T15:07:21.746Z,2.37
2019-06-15T15:09:56.436Z,2.00
2019-06-15T15:12:27.647Z,1.82
2019-06-15T15:14:59.842Z,1.90
2019-06-15T15:17:31.860Z,1.65
2019-06-15T15:20:07.182Z,1.75
2019-06-15T15:22:38.832Z,1.67
2019-06-15T15:25:12.801Z,1.67
2019-06-15T15:27:46.763Z,1.50
2019-06-15T15:30:36.364Z,1.60
2019-06-15T15:33:08.544Z,1.70
2019-06-15T15:35:40.545Z,1.72
2019-06-15T15:38:12.525Z,1.80
2019-06-15T15:40:46.661Z,1.80
2019-06-15T15:43:18.396Z,2.45
2019-06-15T15:45:50.379Z,2.35
2019-06-15T15:48:22.387Z,1.98
2019-06-15T15:50:54.344Z,1.70
2019-06-15T15:53:26.540Z,1.72
2019-06-15T15:56:00.346Z,1.67
2019-06-15T15:58:32.382Z,1.60
2019-06-15T16:01:06.558Z,2.10
2019-06-15T16:03:38.263Z,1.92
2019-06-15T16:06:10.333Z,1.90
2019-06-15T16:08:42.351Z,1.77
2019-06-15T16:11:16.350Z,1.82
2019-06-15T16:13:48.296Z,1.70
2019-06-15T16:16:20.331Z,1.77
2019-06-15T16:18:52.341Z,1.92
2019-06-15T16:21:26.025Z,1.80
2019-06-15T16:23:58.530Z,1.72
2019-06-15T16:26:30.706Z,1.70
2019-06-15T16:29:02.722Z,1.52
2019-06-15T16:31:37.196Z,1.67
2019-06-15T16:34:08.634Z,1.95
2019-06-15T16:36:40.630Z,3.10
2019-06-15T16:39:12.622Z,2.90
2019-06-15T16:41:46.861Z,1.80
2019-06-15T16:44:18.532Z,1.80
2019-06-15T16:46:50.555Z,1.87
2019-06-15T16:49:22.538Z,1.95
2019-06-15T16:51:54.592Z,1.98
2019-06-15T16:54:27.070Z,1.90
2019-06-15T16:56:59.188Z,2.12
2019-06-15T16:59:31.168Z,2.33
2019-06-15T17:02:03.334Z,2.35
2019-06-15T17:04:36.406Z,2.05
2019-06-15T17:07:08.568Z,2.30
2019-06-15T17:09:40.564Z,2.60
2019-06-15T17:12:12.589Z,2.40
2019-06-15T17:14:44.583Z,6.75
2019-06-15T17:17:17.366Z,4.72
2019-06-15T17:19:49.504Z,3.95
2019-06-15T17:22:21.646Z,2.58
2019-06-15T17:24:53.588Z,2.87
2019-06-15T17:27:26.193Z,2.42
2019-06-15T17:29:58.364Z,3.62
2019-06-15T17:32:30.465Z,3.00
2019-06-15T17:35:02.495Z,2.65
2019-06-15T17:37:36.416Z,2.60
2019-06-15T17:40:09.213Z,2.40
2019-06-15T17:42:41.217Z,2.92
2019-06-15T17:45:16.004Z,3.27
2019-06-15T17:47:47.183Z,3.20
2019-06-15T17:50:23.264Z,2.55
2019-06-15T17:52:55.268Z,2.33
2019-06-15T17:55:27.243Z,2.98
2019-06-15T17:57:59.262Z,2.33
2019-06-15T18:00:49.364Z,2.67
2019-06-15T18:03:21.367Z,2.33
2019-06-15T18:05:53.335Z,2.83
2019-06-15T18:08:26.891Z,2.00
2019-06-15T18:10:58.984Z,2.47
2019-06-15T18:13:31.025Z,2.33
2019-06-15T18:16:02.997Z,2.40
2019-06-15T18:18:37.091Z,2.33
2019-06-15T18:21:08.984Z,2.20
2019-06-15T18:23:41.010Z,2.33
2019-06-15T18:26:12.959Z,2.25
2019-06-15T18:28:46.869Z,3.77
2019-06-15T18:31:18.895Z,2.35
2019-06-15T18:34:05.776Z,2.15
2019-06-15T18:36:26.598Z,1.75
2019-06-15T18:38:58.685Z,2.10
2019-06-15T18:41:30.706Z,2.52
2019-06-15T18:44:02.716Z,1.98
2019-06-15T18:46:36.760Z,2.20
2019-06-15T18:49:08.622Z,2.00
2019-06-15T18:51:40.628Z,2.22
2019-06-15T18:54:12.660Z,2.42
2019-06-15T18:56:45.986Z,2.47
2019-06-15T18:59:18.117Z,2.50
2019-06-15T19:01:50.081Z,3.02
2019-06-15T19:04:27.104Z,2.95
2019-06-15T19:06:56.240Z,2.70
2019-06-15T19:09:28.344Z,2.58
2019-06-15T19:12:00.305Z,2.90
2019-06-15T19:14:32.355Z,3.27
2019-06-15T19:17:06.063Z,2.90
2019-06-15T19:19:38.270Z,3.45
2019-06-15T19:22:10.241Z,4.22
2019-06-15T19:24:42.278Z,3.02
2019-06-15T19:27:16.143Z,2.62
2019-06-15T19:29:48.181Z,3.12
2019-06-15T19:32:20.210Z,2.80
2019-06-15T19:34:52.287Z,2.80
2019-06-15T19:37:26.074Z,3.10
2019-06-15T19:39:58.153Z,4.20
2019-06-15T19:42:30.154Z,3.55
2019-06-15T19:45:02.172Z,3.67
2019-06-15T19:47:37.711Z,3.27
2019-06-15T19:50:10.219Z,3.20
2019-06-15T19:52:42.215Z,3.17
2019-06-15T19:55:16.359Z,3.45
2019-06-15T19:57:48.105Z,3.42
2019-06-15T20:00:20.227Z,3.50
2019-06-15T20:02:52.223Z,3.85
2019-06-15T20:05:25.953Z,3.85
2019-06-15T20:07:58.131Z,3.12
2019-06-15T20:10:30.131Z,3.25
2019-06-15T20:13:02.146Z,2.92
2019-06-15T20:15:37.335Z,3.00
2019-06-15T20:18:08.060Z,2.98
2019-06-15T20:20:40.099Z,4.70
2019-06-15T20:23:12.089Z,3.05
2019-06-15T20:25:46.806Z,3.30
2019-06-15T20:28:18.000Z,3.52
2019-06-15T20:30:50.050Z,3.30
2019-06-15T20:33:22.074Z,3.50
2019-06-15T20:35:54.129Z,3.95
2019-06-15T20:38:26.911Z,4.37
2019-06-15T20:40:59.274Z,3.40
2019-06-15T20:43:31.245Z,3.00
2019-06-15T20:46:03.286Z,3.60
2019-06-15T20:48:36.306Z,4.30
2019-06-15T20:51:10.281Z,4.67
2019-06-15T20:53:42.419Z,4.42
2019-06-15T20:56:16.930Z,3.40
2019-06-15T20:58:48.369Z,3.72
2019-06-15T21:01:20.388Z,3.83
2019-06-15T21:03:52.427Z,3.60
2019-06-15T21:06:26.034Z,3.80
2019-06-15T21:08:58.115Z,3.62
2019-06-15T21:11:30.129Z,3.60
2019-06-15T21:14:02.242Z,4.10
2019-06-15T21:16:36.853Z,4.35
2019-06-15T21:19:08.504Z,4.25
2019-06-15T21:21:40.477Z,5.03
2019-06-15T21:24:12.475Z,4.05
2019-06-15T21:26:44.501Z,3.83
2019-06-15T21:29:16.798Z,7.08
2019-06-15T21:31:48.998Z,4.60
2019-06-15T21:34:20.994Z,4.20
2019-06-15T21:36:53.031Z,5.17
2019-06-15T21:39:26.579Z,4.90
2019-06-15T21:41:58.802Z,4.75
2019-06-15T21:44:30.894Z,4.58
2019-06-15T21:47:02.911Z,4.80
2019-06-15T21:49:35.872Z,4.33
2019-06-15T21:52:07.934Z,5.45
2019-06-15T21:54:39.937Z,4.70
2019-06-15T21:57:11.914Z,4.58
2019-06-15T21:59:43.913Z,4.58
2019-06-15T22:02:15.922Z,4.33
2019-06-15T22:04:49.022Z,4.62
2019-06-15T22:07:20.999Z,4.87
2019-06-15T22:09:52.984Z,4.60
2019-06-15T22:12:26.889Z,5.50
2019-06-15T22:14:58.900Z,5.42
2019-06-15T22:17:30.890Z,5.30
2019-06-15T22:20:02.903Z,5.90
2019-06-15T22:22:36.463Z,6.50
2019-06-15T22:25:08.604Z,7.33
2019-06-15T22:27:40.664Z,7.60
2019-06-15T22:30:12.851Z,6.20
2019-06-15T22:32:47.082Z,6.95
2019-06-15T22:35:18.776Z,6.95
2019-06-15T22:37:50.779Z,7.47
2019-06-15T22:40:22.826Z,8.33
2019-06-15T22:42:56.312Z,8.10
2019-06-15T22:45:28.401Z,9.20
2019-06-15T22:48:00.356Z,8.50
2019-06-15T22:50:32.379Z,9.25
2019-06-15T22:53:07.155Z,9.10
2019-06-15T22:55:38.301Z,9.15
2019-06-15T22:58:10.303Z,8.33
2019-06-15T23:00:42.296Z,10.98
2019-06-15T23:03:16.662Z,11.55
2019-06-15T23:05:48.182Z,8.25
2019-06-15T23:08:20.149Z,9.18
2019-06-15T23:10:52.197Z,9.40
2019-06-15T23:13:26.149Z,9.63
2019-06-15T23:15:58.058Z,9.28
2019-06-15T23:18:30.038Z,10.60
2019-06-15T23:21:02.077Z,10.60
2019-06-15T23:23:36.191Z,10.20
2019-06-15T23:26:07.950Z,10.03
2019-06-15T23:28:39.954Z,8.85
2019-06-15T23:31:11.921Z,9.33
2019-06-15T23:33:46.611Z,9.30
2019-06-15T23:36:23.059Z,10.05
2019-06-15T23:38:57.063Z,12.58
2019-06-15T23:41:29.070Z,11.63
2019-06-15T23:44:01.001Z,11.35
2019-06-15T23:46:32.988Z,10.93
2019-06-15T23:49:06.963Z,10.60
2019-06-15T23:51:38.830Z,10.85
2019-06-15T23:54:10.798Z,11.03
2019-06-15T23:56:42.824Z,10.20
2019-06-15T23:59:17.719Z,11.33
